Fort St John Airport
CYXJ : now visible

Airfield :











YOU CAN JOIN US ON...

 
LOGIN :

Register | Disclaimer

   EN    FR    IT 

 









Legend :    VFR   Marginal VFR   IFR   Intensive IFR   Very Intensive IFR
Visi :
Ceiling :
>= 8 km
>= 3000ft
5 to 8 km
1000 to 3000 ft
1500m to 5 km
500 to 1000 ft
800 to 1500m
200 to 500 ft
< 800m
< 200 ft
Symbols :   Thunderstorms  Fog  Heavy snow  Heavy precipitations  Wind > 20 kt






- Airport Elevation : 2280 ft
- IATA code : YXJ


CYXJ - Fort St John

CURRENT METAR :
  • 030100Z 33006KT 60SM FEW140 FEW240 M11/M23 A3023 RMK AC1CI1 CI TR SLP300

EXPIRED METARs :
  • 030000Z 33006KT 60SM FEW140 FEW240 M10/M22 A3024 RMK AC1CI1 SLP304
  • 022300Z 34006KT 60SM FEW050 FEW150 M10/M22 A3026 RMK SC1AC2 SC TR SLP309

TAF TAF CYXJ
Valid from the 02 at 19:00 until the 03 at 07:00 UTC


021838Z 0219/0307 33008KT P6SM SCT050 BKN220 RMK NXT FCST BY 030100Z



MET'MAP, your aeronautical weather chart ! - Copyright ORBIFLY December 2007 - Disclaimer

ORBIFLY MET'MAP TEAM :

Programming & Development : Alexandra Zaïnal
Concept & original design : Baudouin d'Aumeries
Assistance for programming : Marc-Olivier Méhu
Technical & hardware support : Manuel Goepfert

Contact : metmap@orbifly.com




SOURCES & CREDITS :

   NOAA       Earth
Advisory